sensor_id;sensor_type;location;lat;lon;timestamp;temperature;humidity
19292;DHT22;9779;51.756;7.450;2023-12-29T00:01:47;10.40;99.90
19292;DHT22;9779;51.756;7.450;2023-12-29T00:04:13;10.30;99.90
19292;DHT22;9779;51.756;7.450;2023-12-29T00:06:39;10.40;99.90
19292;DHT22;9779;51.756;7.450;2023-12-29T00:09:05;10.40;99.90
19292;DHT22;9779;51.756;7.450;2023-12-29T00:11:30;10.40;99.90
19292;DHT22;9779;51.756;7.450;2023-12-29T00:13:56;10.40;99.90
19292;DHT22;9779;51.756;7.450;2023-12-29T00:16:22;10.40;99.90
19292;DHT22;9779;51.756;7.450;2023-12-29T00:18:47;10.40;99.90
19292;DHT22;9779;51.756;7.450;2023-12-29T00:21:13;10.50;99.90
19292;DHT22;9779;51.756;7.450;2023-12-29T00:23:39;10.40;99.90
19292;DHT22;9779;51.756;7.450;2023-12-29T00:26:04;10.40;99.90
19292;DHT22;9779;51.756;7.450;2023-12-29T00:28:30;10.40;99.90
19292;DHT22;9779;51.756;7.450;2023-12-29T00:30:56;10.40;99.90
19292;DHT22;9779;51.756;7.450;2023-12-29T00:33:21;10.40;99.90
19292;DHT22;9779;51.756;7.450;2023-12-29T00:35:47;10.40;99.90
19292;DHT22;9779;51.756;7.450;2023-12-29T00:38:13;10.40;99.90
19292;DHT22;9779;51.756;7.450;2023-12-29T00:40:38;10.50;99.90
19292;DHT22;9779;51.756;7.450;2023-12-29T00:43:04;10.40;99.90
19292;DHT22;9779;51.756;7.450;2023-12-29T00:45:30;10.40;99.90
19292;DHT22;9779;51.756;7.450;2023-12-29T00:47:59;10.40;99.90
19292;DHT22;9779;51.756;7.450;2023-12-29T00:50:25;10.50;99.90
19292;DHT22;9779;51.756;7.450;2023-12-29T00:52:51;10.50;99.90
19292;DHT22;9779;51.756;7.450;2023-12-29T00:55:17;10.50;99.90
19292;DHT22;9779;51.756;7.450;2023-12-29T00:57:43;10.50;99.90
19292;DHT22;9779;51.756;7.450;2023-12-29T01:00:11;10.50;99.90
19292;DHT22;9779;51.756;7.450;2023-12-29T01:02:38;10.50;99.90
19292;DHT22;9779;51.756;7.450;2023-12-29T01:05:04;10.50;99.90
19292;DHT22;9779;51.756;7.450;2023-12-29T01:07:29;10.50;99.90
19292;DHT22;9779;51.756;7.450;2023-12-29T01:09:55;10.50;99.90
19292;DHT22;9779;51.756;7.450;2023-12-29T01:12:21;10.50;99.90
19292;DHT22;9779;51.756;7.450;2023-12-29T01:14:46;10.50;99.90
19292;DHT22;9779;51.756;7.450;2023-12-29T01:17:12;10.50;99.90
19292;DHT22;9779;51.756;7.450;2023-12-29T01:19:37;10.40;99.90
19292;DHT22;9779;51.756;7.450;2023-12-29T01:22:03;10.40;99.90
19292;DHT22;9779;51.756;7.450;2023-12-29T01:24:29;10.40;99.90
19292;DHT22;9779;51.756;7.450;2023-12-29T01:26:56;10.40;99.90
19292;DHT22;9779;51.756;7.450;2023-12-29T01:29:21;10.40;99.90
19292;DHT22;9779;51.756;7.450;2023-12-29T01:31:47;10.40;99.90
19292;DHT22;9779;51.756;7.450;2023-12-29T01:34:13;10.40;99.90
19292;DHT22;9779;51.756;7.450;2023-12-29T01:36:39;10.40;99.90
19292;DHT22;9779;51.756;7.450;2023-12-29T01:39:04;10.40;99.90
19292;DHT22;9779;51.756;7.450;2023-12-29T01:41:30;10.30;1.00
19292;DHT22;9779;51.756;7.450;2023-12-29T01:46:33;10.10;99.90
19292;DHT22;9779;51.756;7.450;2023-12-29T01:48:59;10.00;99.90
19292;DHT22;9779;51.756;7.450;2023-12-29T01:51:26;9.90;99.90
19292;DHT22;9779;51.756;7.450;2023-12-29T01:53:52;9.90;99.90
19292;DHT22;9779;51.756;7.450;2023-12-29T01:56:20;9.90;99.90
19292;DHT22;9779;51.756;7.450;2023-12-29T01:58:49;9.80;99.90
19292;DHT22;9779;51.756;7.450;2023-12-29T02:01:17;9.80;99.90
19292;DHT22;9779;51.756;7.450;2023-12-29T02:03:44;9.80;99.90
19292;DHT22;9779;51.756;7.450;2023-12-29T02:06:10;9.80;99.90
19292;DHT22;9779;51.756;7.450;2023-12-29T02:08:40;9.80;1.00
19292;DHT22;9779;51.756;7.450;2023-12-29T02:11:06;9.80;1.00
19292;DHT22;9779;51.756;7.450;2023-12-29T02:13:32;9.80;99.90
19292;DHT22;9779;51.756;7.450;2023-12-29T02:16:07;9.80;99.90
19292;DHT22;9779;51.756;7.450;2023-12-29T02:18:36;9.80;1.00
19292;DHT22;9779;51.756;7.450;2023-12-29T02:21:03;9.80;1.00
19292;DHT22;9779;51.756;7.450;2023-12-29T02:23:29;9.70;1.00
19292;DHT22;9779;51.756;7.450;2023-12-29T02:26:01;9.60;1.00
19292;DHT22;9779;51.756;7.450;2023-12-29T02:28:28;9.60;1.00
19292;DHT22;9779;51.756;7.450;2023-12-29T02:31:16;9.50;1.00
19292;DHT22;9779;51.756;7.450;2023-12-29T02:33:43;9.50;1.00
19292;DHT22;9779;51.756;7.450;2023-12-29T02:36:10;9.50;1.00
19292;DHT22;9779;51.756;7.450;2023-12-29T02:38:37;9.30;11.60
19292;DHT22;9779;51.756;7.450;2023-12-29T02:41:03;9.30;52.50
19292;DHT22;9779;51.756;7.450;2023-12-29T02:43:31;9.30;99.90
19292;DHT22;9779;51.756;7.450;2023-12-29T02:45:57;9.30;99.90
19292;DHT22;9779;51.756;7.450;2023-12-29T02:48:23;9.20;99.90
19292;DHT22;9779;51.756;7.450;2023-12-29T02:50:48;9.20;99.90
19292;DHT22;9779;51.756;7.450;2023-12-29T02:53:14;9.20;99.90
19292;DHT22;9779;51.756;7.450;2023-12-29T02:55:40;9.10;99.90
19292;DHT22;9779;51.756;7.450;2023-12-29T02:58:05;9.10;99.90
19292;DHT22;9779;51.756;7.450;2023-12-29T03:00:31;9.00;99.90
19292;DHT22;9779;51.756;7.450;2023-12-29T03:02:56;9.00;99.90
19292;DHT22;9779;51.756;7.450;2023-12-29T03:05:22;9.00;99.90
19292;DHT22;9779;51.756;7.450;2023-12-29T03:07:47;9.00;99.90
19292;DHT22;9779;51.756;7.450;2023-12-29T03:10:13;8.90;99.90
19292;DHT22;9779;51.756;7.450;2023-12-29T03:12:39;8.90;99.90
19292;DHT22;9779;51.756;7.450;2023-12-29T03:15:05;8.90;99.90
19292;DHT22;9779;51.756;7.450;2023-12-29T03:17:30;8.90;99.90
19292;DHT22;9779;51.756;7.450;2023-12-29T03:19:56;8.80;99.90
19292;DHT22;9779;51.756;7.450;2023-12-29T03:22:22;8.80;99.90
19292;DHT22;9779;51.756;7.450;2023-12-29T03:24:48;8.80;99.90
19292;DHT22;9779;51.756;7.450;2023-12-29T03:27:13;8.80;99.90
19292;DHT22;9779;51.756;7.450;2023-12-29T03:29:39;8.80;99.90
19292;DHT22;9779;51.756;7.450;2023-12-29T03:32:05;8.90;99.90
19292;DHT22;9779;51.756;7.450;2023-12-29T03:34:32;8.80;99.90
19292;DHT22;9779;51.756;7.450;2023-12-29T03:36:58;8.90;99.90
19292;DHT22;9779;51.756;7.450;2023-12-29T03:39:24;8.90;99.90
19292;DHT22;9779;51.756;7.450;2023-12-29T03:41:49;8.90;99.90
19292;DHT22;9779;51.756;7.450;2023-12-29T03:44:15;8.90;99.90
19292;DHT22;9779;51.756;7.450;2023-12-29T03:46:41;9.00;99.90
19292;DHT22;9779;51.756;7.450;2023-12-29T03:49:06;8.90;99.90
19292;DHT22;9779;51.756;7.450;2023-12-29T03:51:32;9.00;99.90
19292;DHT22;9779;51.756;7.450;2023-12-29T03:53:57;9.00;99.90
19292;DHT22;9779;51.756;7.450;2023-12-29T03:56:26;9.00;99.90
19292;DHT22;9779;51.756;7.450;2023-12-29T03:58:52;9.00;99.90
19292;DHT22;9779;51.756;7.450;2023-12-29T04:01:18;9.00;99.90
19292;DHT22;9779;51.756;7.450;2023-12-29T04:03:45;9.00;99.90
19292;DHT22;9779;51.756;7.450;2023-12-29T04:06:11;9.10;99.90
19292;DHT22;9779;51.756;7.450;2023-12-29T04:08:37;9.10;99.90
19292;DHT22;9779;51.756;7.450;2023-12-29T04:11:04;9.10;99.90
19292;DHT22;9779;51.756;7.450;2023-12-29T04:13:30;9.10;99.90
19292;DHT22;9779;51.756;7.450;2023-12-29T04:15:56;9.10;99.90
19292;DHT22;9779;51.756;7.450;2023-12-29T04:18:23;9.10;99.90
19292;DHT22;9779;51.756;7.450;2023-12-29T04:20:49;9.10;99.90
19292;DHT22;9779;51.756;7.450;2023-12-29T04:23:15;9.10;99.90
19292;DHT22;9779;51.756;7.450;2023-12-29T04:25:40;9.10;99.90
19292;DHT22;9779;51.756;7.450;2023-12-29T04:28:06;9.10;99.90
19292;DHT22;9779;51.756;7.450;2023-12-29T04:30:33;9.10;99.90
19292;DHT22;9779;51.756;7.450;2023-12-29T04:32:59;9.20;99.90
19292;DHT22;9779;51.756;7.450;2023-12-29T04:35:24;9.20;99.90
19292;DHT22;9779;51.756;7.450;2023-12-29T04:37:50;9.20;96.80
19292;DHT22;9779;51.756;7.450;2023-12-29T04:40:16;9.20;74.10
19292;DHT22;9779;51.756;7.450;2023-12-29T04:42:42;9.20;28.40
19292;DHT22;9779;51.756;7.450;2023-12-29T04:45:08;9.20;1.00
19292;DHT22;9779;51.756;7.450;2023-12-29T04:47:35;9.20;1.00
19292;DHT22;9779;51.756;7.450;2023-12-29T04:50:01;9.20;1.00
19292;DHT22;9779;51.756;7.450;2023-12-29T04:52:27;9.20;1.00
19292;DHT22;9779;51.756;7.450;2023-12-29T04:54:53;9.30;1.00
19292;DHT22;9779;51.756;7.450;2023-12-29T04:57:18;9.30;1.00
19292;DHT22;9779;51.756;7.450;2023-12-29T04:59:44;9.20;1.00
19292;DHT22;9779;51.756;7.450;2023-12-29T05:02:10;9.20;1.00
19292;DHT22;9779;51.756;7.450;2023-12-29T05:04:35;9.20;1.00
19292;DHT22;9779;51.756;7.450;2023-12-29T05:07:01;9.30;1.00
19292;DHT22;9779;51.756;7.450;2023-12-29T05:09:26;9.30;1.00
19292;DHT22;9779;51.756;7.450;2023-12-29T05:11:52;9.30;1.00
19292;DHT22;9779;51.756;7.450;2023-12-29T05:14:18;9.40;1.00
19292;DHT22;9779;51.756;7.450;2023-12-29T05:16:44;9.40;1.00
19292;DHT22;9779;51.756;7.450;2023-12-29T05:19:09;9.40;1.00
19292;DHT22;9779;51.756;7.450;2023-12-29T05:21:35;9.40;1.00
19292;DHT22;9779;51.756;7.450;2023-12-29T05:24:01;9.50;1.00
19292;DHT22;9779;51.756;7.450;2023-12-29T05:26:26;9.50;1.00
19292;DHT22;9779;51.756;7.450;2023-12-29T05:28:52;9.50;1.00
19292;DHT22;9779;51.756;7.450;2023-12-29T05:31:18;9.50;1.00
19292;DHT22;9779;51.756;7.450;2023-12-29T05:33:44;9.50;1.00
19292;DHT22;9779;51.756;7.450;2023-12-29T05:36:10;9.50;1.00
19292;DHT22;9779;51.756;7.450;2023-12-29T05:38:39;9.60;99.90
19292;DHT22;9779;51.756;7.450;2023-12-29T05:41:06;9.70;99.90
19292;DHT22;9779;51.756;7.450;2023-12-29T05:43:32;9.70;99.90
19292;DHT22;9779;51.756;7.450;2023-12-29T05:45:59;9.70;99.90
19292;DHT22;9779;51.756;7.450;2023-12-29T05:48:25;9.70;99.90
19292;DHT22;9779;51.756;7.450;2023-12-29T05:50:51;9.70;99.90
19292;DHT22;9779;51.756;7.450;2023-12-29T05:53:17;9.70;99.90
19292;DHT22;9779;51.756;7.450;2023-12-29T05:55:45;9.70;99.90
19292;DHT22;9779;51.756;7.450;2023-12-29T05:58:11;9.70;99.90
19292;DHT22;9779;51.756;7.450;2023-12-29T06:00:37;9.70;17.50
19292;DHT22;9779;51.756;7.450;2023-12-29T06:03:04;9.70;1.00
19292;DHT22;9779;51.756;7.450;2023-12-29T06:05:30;9.70;13.70
19292;DHT22;9779;51.756;7.450;2023-12-29T06:07:56;9.70;83.30
19292;DHT22;9779;51.756;7.450;2023-12-29T06:10:21;9.70;40.20
19292;DHT22;9779;51.756;7.450;2023-12-29T06:12:47;9.70;1.00
19292;DHT22;9779;51.756;7.450;2023-12-29T06:15:13;9.80;1.00
19292;DHT22;9779;51.756;7.450;2023-12-29T06:17:40;9.80;1.00
19292;DHT22;9779;51.756;7.450;2023-12-29T06:20:06;9.70;1.00
19292;DHT22;9779;51.756;7.450;2023-12-29T06:22:33;9.80;1.00
19292;DHT22;9779;51.756;7.450;2023-12-29T06:24:59;9.80;1.00
19292;DHT22;9779;51.756;7.450;2023-12-29T06:27:25;9.80;1.00
19292;DHT22;9779;51.756;7.450;2023-12-29T06:29:51;9.70;1.00
19292;DHT22;9779;51.756;7.450;2023-12-29T06:32:16;9.70;1.00
19292;DHT22;9779;51.756;7.450;2023-12-29T06:34:42;9.80;1.00
19292;DHT22;9779;51.756;7.450;2023-12-29T06:37:08;9.80;1.00
19292;DHT22;9779;51.756;7.450;2023-12-29T06:39:34;9.80;1.00
19292;DHT22;9779;51.756;7.450;2023-12-29T06:42:00;9.80;1.00
19292;DHT22;9779;51.756;7.450;2023-12-29T06:44:25;9.80;1.00
19292;DHT22;9779;51.756;7.450;2023-12-29T06:46:51;9.80;1.00
19292;DHT22;9779;51.756;7.450;2023-12-29T06:49:17;9.80;1.00
19292;DHT22;9779;51.756;7.450;2023-12-29T06:51:42;9.80;1.00
19292;DHT22;9779;51.756;7.450;2023-12-29T06:54:09;9.90;99.90
19292;DHT22;9779;51.756;7.450;2023-12-29T06:56:34;9.80;1.00
19292;DHT22;9779;51.756;7.450;2023-12-29T06:59:00;9.80;99.90
19292;DHT22;9779;51.756;7.450;2023-12-29T07:01:25;9.80;99.90
19292;DHT22;9779;51.756;7.450;2023-12-29T07:03:51;9.80;99.90
19292;DHT22;9779;51.756;7.450;2023-12-29T07:06:17;9.80;99.90
19292;DHT22;9779;51.756;7.450;2023-12-29T07:08:42;9.80;99.90
19292;DHT22;9779;51.756;7.450;2023-12-29T07:11:11;9.80;99.90
19292;DHT22;9779;51.756;7.450;2023-12-29T07:13:37;9.80;99.90
19292;DHT22;9779;51.756;7.450;2023-12-29T07:16:04;9.80;99.90
19292;DHT22;9779;51.756;7.450;2023-12-29T07:18:29;9.80;99.90
19292;DHT22;9779;51.756;7.450;2023-12-29T07:20:55;9.80;99.90
19292;DHT22;9779;51.756;7.450;2023-12-29T07:23:20;9.80;99.90
19292;DHT22;9779;51.756;7.450;2023-12-29T07:25:48;9.80;99.90
19292;DHT22;9779;51.756;7.450;2023-12-29T07:28:14;9.80;99.90
19292;DHT22;9779;51.756;7.450;2023-12-29T07:30:39;9.80;99.90
19292;DHT22;9779;51.756;7.450;2023-12-29T07:33:05;9.80;99.90
19292;DHT22;9779;51.756;7.450;2023-12-29T07:35:31;9.80;1.00
19292;DHT22;9779;51.756;7.450;2023-12-29T07:37:56;9.70;99.90
19292;DHT22;9779;51.756;7.450;2023-12-29T07:40:22;9.80;1.00
19292;DHT22;9779;51.756;7.450;2023-12-29T07:42:48;9.70;1.00
19292;DHT22;9779;51.756;7.450;2023-12-29T07:45:16;9.70;99.90
19292;DHT22;9779;51.756;7.450;2023-12-29T07:47:42;9.60;1.00
19292;DHT22;9779;51.756;7.450;2023-12-29T07:50:07;9.50;1.00
19292;DHT22;9779;51.756;7.450;2023-12-29T07:52:33;9.40;1.00
19292;DHT22;9779;51.756;7.450;2023-12-29T07:54:59;9.40;1.00
19292;DHT22;9779;51.756;7.450;2023-12-29T07:57:24;9.30;1.00
19292;DHT22;9779;51.756;7.450;2023-12-29T07:59:50;9.30;38.00
19292;DHT22;9779;51.756;7.450;2023-12-29T08:02:15;9.30;33.80
19292;DHT22;9779;51.756;7.450;2023-12-29T08:04:42;9.20;55.30
19292;DHT22;9779;51.756;7.450;2023-12-29T08:07:07;9.20;72.40
19292;DHT22;9779;51.756;7.450;2023-12-29T08:09:33;9.20;54.90
19292;DHT22;9779;51.756;7.450;2023-12-29T08:11:59;9.20;41.10
19292;DHT22;9779;51.756;7.450;2023-12-29T08:14:26;9.30;24.80
19292;DHT22;9779;51.756;7.450;2023-12-29T08:16:51;9.20;30.00
19292;DHT22;9779;51.756;7.450;2023-12-29T08:19:17;9.20;30.50
19292;DHT22;9779;51.756;7.450;2023-12-29T08:21:42;9.20;27.60
19292;DHT22;9779;51.756;7.450;2023-12-29T08:24:08;9.20;30.40
19292;DHT22;9779;51.756;7.450;2023-12-29T08:26:34;9.20;33.20
19292;DHT22;9779;51.756;7.450;2023-12-29T08:28:59;9.20;46.80
19292;DHT22;9779;51.756;7.450;2023-12-29T08:31:25;9.30;16.50
19292;DHT22;9779;51.756;7.450;2023-12-29T08:33:51;9.30;33.10
19292;DHT22;9779;51.756;7.450;2023-12-29T08:36:21;9.20;24.60
19292;DHT22;9779;51.756;7.450;2023-12-29T08:38:46;9.30;62.50
19292;DHT22;9779;51.756;7.450;2023-12-29T08:41:15;9.30;57.20
19292;DHT22;9779;51.756;7.450;2023-12-29T08:43:41;9.30;99.90
19292;DHT22;9779;51.756;7.450;2023-12-29T08:46:06;9.20;99.90
19292;DHT22;9779;51.756;7.450;2023-12-29T08:48:32;9.20;99.90
19292;DHT22;9779;51.756;7.450;2023-12-29T08:50:57;9.10;99.90
19292;DHT22;9779;51.756;7.450;2023-12-29T08:53:23;9.10;99.90
19292;DHT22;9779;51.756;7.450;2023-12-29T08:55:49;9.10;99.90
19292;DHT22;9779;51.756;7.450;2023-12-29T08:58:14;9.10;99.90
19292;DHT22;9779;51.756;7.450;2023-12-29T09:00:40;9.10;99.90
19292;DHT22;9779;51.756;7.450;2023-12-29T09:03:06;9.20;99.90
19292;DHT22;9779;51.756;7.450;2023-12-29T09:05:31;9.20;99.90
19292;DHT22;9779;51.756;7.450;2023-12-29T09:07:57;9.20;99.90
19292;DHT22;9779;51.756;7.450;2023-12-29T09:10:22;9.20;99.90
19292;DHT22;9779;51.756;7.450;2023-12-29T09:12:49;9.20;99.90
19292;DHT22;9779;51.756;7.450;2023-12-29T09:15:15;9.20;99.90
19292;DHT22;9779;51.756;7.450;2023-12-29T09:17:40;9.20;99.90
19292;DHT22;9779;51.756;7.450;2023-12-29T09:20:06;9.20;99.90
19292;DHT22;9779;51.756;7.450;2023-12-29T09:22:33;9.30;99.90
19292;DHT22;9779;51.756;7.450;2023-12-29T09:24:59;9.30;99.90
19292;DHT22;9779;51.756;7.450;2023-12-29T09:27:24;9.30;99.90
19292;DHT22;9779;51.756;7.450;2023-12-29T09:29:50;9.40;99.90
19292;DHT22;9779;51.756;7.450;2023-12-29T09:32:16;9.40;99.90
19292;DHT22;9779;51.756;7.450;2023-12-29T09:34:41;9.40;99.90
19292;DHT22;9779;51.756;7.450;2023-12-29T09:37:08;9.40;39.20
19292;DHT22;9779;51.756;7.450;2023-12-29T09:39:33;9.50;1.00
19292;DHT22;9779;51.756;7.450;2023-12-29T09:41:59;9.50;1.00
19292;DHT22;9779;51.756;7.450;2023-12-29T09:44:29;9.50;1.00
19292;DHT22;9779;51.756;7.450;2023-12-29T09:47:00;9.50;1.00
19292;DHT22;9779;51.756;7.450;2023-12-29T09:49:29;9.60;1.00
19292;DHT22;9779;51.756;7.450;2023-12-29T09:51:57;9.60;1.00
19292;DHT22;9779;51.756;7.450;2023-12-29T09:54:23;9.60;1.00
19292;DHT22;9779;51.756;7.450;2023-12-29T09:56:49;9.60;1.00
19292;DHT22;9779;51.756;7.450;2023-12-29T09:59:16;9.70;1.00
19292;DHT22;9779;51.756;7.450;2023-12-29T10:01:43;9.70;1.00
19292;DHT22;9779;51.756;7.450;2023-12-29T10:04:11;9.70;1.00
19292;DHT22;9779;51.756;7.450;2023-12-29T10:06:39;9.70;1.00
19292;DHT22;9779;51.756;7.450;2023-12-29T10:09:07;9.70;1.00
19292;DHT22;9779;51.756;7.450;2023-12-29T10:11:37;9.70;1.00
19292;DHT22;9779;51.756;7.450;2023-12-29T10:14:15;9.70;1.00
19292;DHT22;9779;51.756;7.450;2023-12-29T10:16:47;9.70;1.00
19292;DHT22;9779;51.756;7.450;2023-12-29T10:22:14;9.70;1.00
19292;DHT22;9779;51.756;7.450;2023-12-29T10:24:41;9.80;1.00
19292;DHT22;9779;51.756;7.450;2023-12-29T10:27:09;9.80;1.00
19292;DHT22;9779;51.756;7.450;2023-12-29T10:29:35;9.80;1.00
19292;DHT22;9779;51.756;7.450;2023-12-29T10:32:00;9.80;1.00
19292;DHT22;9779;51.756;7.450;2023-12-29T10:34:26;9.80;1.00
19292;DHT22;9779;51.756;7.450;2023-12-29T10:36:58;9.80;1.00
19292;DHT22;9779;51.756;7.450;2023-12-29T10:39:25;9.90;1.00
19292;DHT22;9779;51.756;7.450;2023-12-29T10:42:05;9.90;1.00
19292;DHT22;9779;51.756;7.450;2023-12-29T10:44:33;9.90;1.00
19292;DHT22;9779;51.756;7.450;2023-12-29T10:46:59;9.90;1.00
19292;DHT22;9779;51.756;7.450;2023-12-29T10:49:32;9.90;1.00
19292;DHT22;9779;51.756;7.450;2023-12-29T10:51:58;10.00;1.00
19292;DHT22;9779;51.756;7.450;2023-12-29T10:54:23;10.00;1.00
19292;DHT22;9779;51.756;7.450;2023-12-29T10:57:02;10.00;1.00
19292;DHT22;9779;51.756;7.450;2023-12-29T10:59:28;10.00;1.00
19292;DHT22;9779;51.756;7.450;2023-12-29T11:01:54;10.00;1.00
19292;DHT22;9779;51.756;7.450;2023-12-29T11:04:22;10.00;1.00
19292;DHT22;9779;51.756;7.450;2023-12-29T11:06:48;10.00;1.00
19292;DHT22;9779;51.756;7.450;2023-12-29T11:09:32;9.90;1.00
19292;DHT22;9779;51.756;7.450;2023-12-29T11:12:01;9.90;1.00
19292;DHT22;9779;51.756;7.450;2023-12-29T11:14:27;9.90;1.00
19292;DHT22;9779;51.756;7.450;2023-12-29T11:16:56;10.00;1.00
19292;DHT22;9779;51.756;7.450;2023-12-29T11:19:22;10.00;1.00
19292;DHT22;9779;51.756;7.450;2023-12-29T11:21:57;10.00;1.00
19292;DHT22;9779;51.756;7.450;2023-12-29T11:24:23;10.00;1.00
19292;DHT22;9779;51.756;7.450;2023-12-29T11:26:50;9.90;1.00
19292;DHT22;9779;51.756;7.450;2023-12-29T11:29:18;9.90;1.00
19292;DHT22;9779;51.756;7.450;2023-12-29T11:31:48;10.00;1.00
19292;DHT22;9779;51.756;7.450;2023-12-29T11:34:26;10.10;1.00
19292;DHT22;9779;51.756;7.450;2023-12-29T11:37:05;10.10;1.00
19292;DHT22;9779;51.756;7.450;2023-12-29T11:39:48;10.10;1.00
19292;DHT22;9779;51.756;7.450;2023-12-29T11:42:19;10.10;99.90
19292;DHT22;9779;51.756;7.450;2023-12-29T11:44:46;10.20;99.90
19292;DHT22;9779;51.756;7.450;2023-12-29T11:47:35;10.20;99.90
19292;DHT22;9779;51.756;7.450;2023-12-29T11:50:03;10.20;99.90
19292;DHT22;9779;51.756;7.450;2023-12-29T11:52:42;10.20;99.90
19292;DHT22;9779;51.756;7.450;2023-12-29T11:55:12;10.20;99.90
19292;DHT22;9779;51.756;7.450;2023-12-29T11:57:38;10.20;99.90
19292;DHT22;9779;51.756;7.450;2023-12-29T12:00:06;10.20;99.90
19292;DHT22;9779;51.756;7.450;2023-12-29T12:02:32;10.20;99.90
19292;DHT22;9779;51.756;7.450;2023-12-29T12:04:57;10.20;99.90
19292;DHT22;9779;51.756;7.450;2023-12-29T12:12:56;10.20;1.00
19292;DHT22;9779;51.756;7.450;2023-12-29T12:17:55;10.30;1.00
19292;DHT22;9779;51.756;7.450;2023-12-29T12:20:21;10.30;1.00
19292;DHT22;9779;51.756;7.450;2023-12-29T12:23:00;10.30;1.00
19292;DHT22;9779;51.756;7.450;2023-12-29T12:25:30;10.30;1.00
19292;DHT22;9779;51.756;7.450;2023-12-29T12:28:01;10.40;1.00
19292;DHT22;9779;51.756;7.450;2023-12-29T12:30:30;10.40;1.00
19292;DHT22;9779;51.756;7.450;2023-12-29T12:33:00;10.40;1.00
19292;DHT22;9779;51.756;7.450;2023-12-29T12:35:25;10.40;1.00
19292;DHT22;9779;51.756;7.450;2023-12-29T12:38:15;10.50;1.00
19292;DHT22;9779;51.756;7.450;2023-12-29T12:40:47;10.50;1.00
19292;DHT22;9779;51.756;7.450;2023-12-29T12:43:17;10.50;1.00
19292;DHT22;9779;51.756;7.450;2023-12-29T12:45:53;10.50;1.00
19292;DHT22;9779;51.756;7.450;2023-12-29T12:48:28;10.40;1.00
19292;DHT22;9779;51.756;7.450;2023-12-29T12:50:56;10.50;1.00
19292;DHT22;9779;51.756;7.450;2023-12-29T12:53:23;10.50;1.00
19292;DHT22;9779;51.756;7.450;2023-12-29T12:55:49;10.50;1.00
19292;DHT22;9779;51.756;7.450;2023-12-29T12:58:19;10.50;1.00
19292;DHT22;9779;51.756;7.450;2023-12-29T13:00:46;10.60;99.90
19292;DHT22;9779;51.756;7.450;2023-12-29T13:03:12;10.60;1.00
19292;DHT22;9779;51.756;7.450;2023-12-29T13:05:38;10.60;99.90
19292;DHT22;9779;51.756;7.450;2023-12-29T13:08:05;10.70;99.90
19292;DHT22;9779;51.756;7.450;2023-12-29T13:10:31;10.70;99.90
19292;DHT22;9779;51.756;7.450;2023-12-29T13:12:57;10.60;99.90
19292;DHT22;9779;51.756;7.450;2023-12-29T13:15:23;10.60;99.90
19292;DHT22;9779;51.756;7.450;2023-12-29T13:17:52;10.60;1.00
19292;DHT22;9779;51.756;7.450;2023-12-29T13:20:18;10.60;1.00
19292;DHT22;9779;51.756;7.450;2023-12-29T13:22:50;10.40;99.90
19292;DHT22;9779;51.756;7.450;2023-12-29T13:25:20;10.40;1.00
19292;DHT22;9779;51.756;7.450;2023-12-29T13:27:47;10.20;99.90
19292;DHT22;9779;51.756;7.450;2023-12-29T13:30:13;10.10;99.90
19292;DHT22;9779;51.756;7.450;2023-12-29T13:32:40;10.00;99.90
19292;DHT22;9779;51.756;7.450;2023-12-29T13:35:21;9.90;1.00
19292;DHT22;9779;51.756;7.450;2023-12-29T13:38:03;9.70;1.00
19292;DHT22;9779;51.756;7.450;2023-12-29T13:40:35;9.60;1.00
19292;DHT22;9779;51.756;7.450;2023-12-29T13:43:03;9.50;1.00
19292;DHT22;9779;51.756;7.450;2023-12-29T13:45:32;9.40;1.00
19292;DHT22;9779;51.756;7.450;2023-12-29T13:47:59;9.30;24.00
19292;DHT22;9779;51.756;7.450;2023-12-29T13:50:25;9.30;99.90
19292;DHT22;9779;51.756;7.450;2023-12-29T13:52:51;9.30;53.20
19292;DHT22;9779;51.756;7.450;2023-12-29T13:55:23;9.20;71.50
19292;DHT22;9779;51.756;7.450;2023-12-29T13:57:49;9.20;99.90
19292;DHT22;9779;51.756;7.450;2023-12-29T14:00:23;9.10;99.90
19292;DHT22;9779;51.756;7.450;2023-12-29T14:05:43;9.10;99.90
19292;DHT22;9779;51.756;7.450;2023-12-29T14:08:22;9.10;99.90
19292;DHT22;9779;51.756;7.450;2023-12-29T14:10:48;9.10;99.90
19292;DHT22;9779;51.756;7.450;2023-12-29T14:13:15;9.00;99.90
19292;DHT22;9779;51.756;7.450;2023-12-29T14:15:44;9.10;99.90
19292;DHT22;9779;51.756;7.450;2023-12-29T14:20:41;9.00;99.90
19292;DHT22;9779;51.756;7.450;2023-12-29T14:23:07;9.00;99.90
19292;DHT22;9779;51.756;7.450;2023-12-29T14:25:36;9.00;99.90
19292;DHT22;9779;51.756;7.450;2023-12-29T14:28:03;8.90;99.90
19292;DHT22;9779;51.756;7.450;2023-12-29T14:30:29;8.90;99.90
19292;DHT22;9779;51.756;7.450;2023-12-29T14:32:57;8.90;99.90
19292;DHT22;9779;51.756;7.450;2023-12-29T14:35:23;8.90;99.90
19292;DHT22;9779;51.756;7.450;2023-12-29T14:37:49;8.90;99.90
19292;DHT22;9779;51.756;7.450;2023-12-29T14:40:15;8.80;99.90
19292;DHT22;9779;51.756;7.450;2023-12-29T14:42:41;8.80;99.90
19292;DHT22;9779;51.756;7.450;2023-12-29T14:45:07;8.80;99.90
19292;DHT22;9779;51.756;7.450;2023-12-29T14:47:33;8.80;99.90
19292;DHT22;9779;51.756;7.450;2023-12-29T14:50:00;8.80;99.90
19292;DHT22;9779;51.756;7.450;2023-12-29T14:52:25;8.80;99.90
19292;DHT22;9779;51.756;7.450;2023-12-29T14:54:51;8.70;99.90
19292;DHT22;9779;51.756;7.450;2023-12-29T14:57:17;8.70;99.90
19292;DHT22;9779;51.756;7.450;2023-12-29T14:59:43;8.60;99.90
19292;DHT22;9779;51.756;7.450;2023-12-29T15:02:09;8.60;99.90
19292;DHT22;9779;51.756;7.450;2023-12-29T15:04:35;8.60;99.90
19292;DHT22;9779;51.756;7.450;2023-12-29T15:07:01;8.60;99.90
19292;DHT22;9779;51.756;7.450;2023-12-29T15:09:27;8.60;99.90
19292;DHT22;9779;51.756;7.450;2023-12-29T15:11:53;8.60;99.90
19292;DHT22;9779;51.756;7.450;2023-12-29T15:14:19;8.60;99.90
19292;DHT22;9779;51.756;7.450;2023-12-29T15:16:45;8.70;99.90
19292;DHT22;9779;51.756;7.450;2023-12-29T15:19:11;8.60;99.90
19292;DHT22;9779;51.756;7.450;2023-12-29T15:21:40;8.60;99.90
19292;DHT22;9779;51.756;7.450;2023-12-29T15:24:06;8.50;99.90
19292;DHT22;9779;51.756;7.450;2023-12-29T15:26:33;8.60;99.90
19292;DHT22;9779;51.756;7.450;2023-12-29T15:28:58;8.60;99.90
19292;DHT22;9779;51.756;7.450;2023-12-29T15:31:24;8.60;99.90
19292;DHT22;9779;51.756;7.450;2023-12-29T15:33:50;8.60;99.90
19292;DHT22;9779;51.756;7.450;2023-12-29T15:36:16;8.60;99.90
19292;DHT22;9779;51.756;7.450;2023-12-29T15:38:49;8.60;99.90
19292;DHT22;9779;51.756;7.450;2023-12-29T15:41:15;8.60;99.90
19292;DHT22;9779;51.756;7.450;2023-12-29T15:43:41;8.60;99.90
19292;DHT22;9779;51.756;7.450;2023-12-29T15:46:16;8.70;99.90
19292;DHT22;9779;51.756;7.450;2023-12-29T15:48:44;8.70;99.90
19292;DHT22;9779;51.756;7.450;2023-12-29T15:51:10;8.70;99.90
19292;DHT22;9779;51.756;7.450;2023-12-29T15:53:36;8.80;99.90
19292;DHT22;9779;51.756;7.450;2023-12-29T15:56:02;8.80;99.90
19292;DHT22;9779;51.756;7.450;2023-12-29T15:58:29;8.80;99.90
19292;DHT22;9779;51.756;7.450;2023-12-29T16:00:55;8.90;99.90
19292;DHT22;9779;51.756;7.450;2023-12-29T16:03:21;8.90;99.90
19292;DHT22;9779;51.756;7.450;2023-12-29T16:05:46;9.00;99.90
19292;DHT22;9779;51.756;7.450;2023-12-29T16:08:12;9.00;99.90
19292;DHT22;9779;51.756;7.450;2023-12-29T16:10:38;9.00;99.90
19292;DHT22;9779;51.756;7.450;2023-12-29T16:13:03;9.00;99.90
19292;DHT22;9779;51.756;7.450;2023-12-29T16:15:29;9.00;99.90
19292;DHT22;9779;51.756;7.450;2023-12-29T16:17:55;9.00;99.90
19292;DHT22;9779;51.756;7.450;2023-12-29T16:20:21;9.00;99.90